Time;durP1;ratioP1;P1;durP2;ratioP2;P2;SDS_P1;SDS_P2;PMS_P1;PMS_P2;Temp;Humidity;BMP_temperature;BMP_pressure;BME280_temperature;BME280_humidity;BME280_pressure;Samples;Min_cycle;Max_cycle;Signal;HPM_P1;HPM_P2
2022/05/29 00:01:43;;;;;;;18.00;6.93;;;;;;;21.10;61.62;99065.34;5031994;28;20512;-88
2022/05/29 00:04:08;;;;;;;14.85;7.03;;;;;;;20.63;61.57;98980.19;5032134;28;20426;-88
2022/05/29 00:06:44;;;;;;;15.85;6.80;;;;;;;21.02;61.73;99047.84;5031790;28;20017;-87
2022/05/29 00:09:13;;;;;;;14.90;6.80;;;;;;;21.22;61.81;99069.47;5031805;28;20021;-88
2022/05/29 00:11:38;;;;;;;14.52;7.65;;;;;;;20.77;61.70;99018.91;5031790;28;20021;-88
2022/05/29 00:14:05;;;;;;;13.38;6.75;;;;;;;20.14;62.01;98939.28;5031971;28;20017;-88
2022/05/29 00:16:31;;;;;;;17.75;6.93;;;;;;;21.14;62.44;99087.91;5033066;28;20075;-88
2022/05/29 00:18:56;;;;;;;14.43;7.13;;;;;;;20.67;62.31;99012.66;5031940;28;20022;-88
2022/05/29 00:21:22;;;;;;;18.73;7.47;;;;;;;21.15;62.16;99090.34;5033091;28;20033;-86
2022/05/29 00:23:49;;;;;;;15.60;7.35;;;;;;;20.49;62.65;98995.09;5031494;28;20053;-88
2022/05/29 00:26:16;;;;;;;13.20;7.35;;;;;;;21.11;62.41;99123.34;5032892;28;20409;-87
2022/05/29 00:28:42;;;;;;;16.20;7.22;;;;;;;20.21;62.59;98964.00;5033088;28;20025;-88
2022/05/29 00:31:08;;;;;;;14.98;7.15;;;;;;;20.41;62.63;99009.78;5031622;28;20493;-88
2022/05/29 00:33:33;;;;;;;17.27;6.95;;;;;;;20.87;62.76;99061.16;5031178;28;20018;-88
2022/05/29 00:35:59;;;;;;;13.32;6.38;;;;;;;20.48;62.84;99037.19;5031641;28;20048;-88
2022/05/29 00:38:25;;;;;;;14.50;7.15;;;;;;;20.93;62.73;99076.22;5031737;28;20029;-88
2022/05/29 00:41:00;;;;;;;17.15;7.60;;;;;;;20.82;62.82;99064.59;5032660;28;20387;-88
2022/05/29 00:43:26;;;;;;;15.05;7.15;;;;;;;20.44;62.96;99016.50;5030440;28;20468;-88
2022/05/29 00:45:57;;;;;;;14.93;7.25;;;;;;;20.92;62.76;99079.97;5031091;28;20022;-88
2022/05/29 00:48:23;;;;;;;13.55;6.72;;;;;;;20.51;62.85;99011.75;5032290;28;20053;-88
2022/05/29 00:50:52;;;;;;;14.52;6.95;;;;;;;20.33;62.60;98977.22;5032410;28;20391;-88
2022/05/29 00:53:19;;;;;;;15.43;6.65;;;;;;;20.49;62.64;99005.81;5030939;28;20076;-88
2022/05/29 00:55:49;;;;;;;16.33;6.78;;;;;;;20.49;62.53;98998.59;5030976;28;20033;-87
2022/05/29 00:58:16;;;;;;;18.02;7.20;;;;;;;20.76;62.59;99046.00;5032043;28;20037;-88
2022/05/29 01:00:42;;;;;;;10.00;5.25;;;;;;;20.69;62.41;99027.44;5031837;28;20029;-87
2022/05/29 01:03:08;;;;;;;16.63;6.40;;;;;;;20.14;62.67;98899.88;5030796;28;20032;-88
2022/05/29 01:05:36;;;;;;;14.98;6.60;;;;;;;20.68;62.80;98963.31;5030871;28;20486;-88
2022/05/29 01:08:16;;;;;;;11.77;6.15;;;;;;;20.68;62.82;98985.59;5030801;28;20025;-89
2022/05/29 01:10:52;;;;;;;13.18;6.07;;;;;;;20.72;62.92;98986.69;5032196;28;20029;-88
2022/05/29 01:13:30;;;;;;;15.15;7.32;;;;;;;20.70;62.91;98993.38;5030719;28;20033;-88
2022/05/29 01:16:14;;;;;;;15.27;6.68;;;;;;;20.62;63.30;98995.47;5032156;28;20049;-88
2022/05/29 01:18:53;;;;;;;13.07;6.32;;;;;;;20.60;63.34;99011.00;5030558;28;20028;-88
2022/05/29 01:21:29;;;;;;;12.18;6.32;;;;;;;20.00;63.19;98952.25;5030841;28;20025;-88
2022/05/29 01:24:09;;;;;;;16.38;6.45;;;;;;;20.61;63.09;99011.81;5030685;28;20053;-88
2022/05/29 01:27:05;;;;;;;13.85;6.25;;;;;;;20.62;62.85;99010.75;5030751;28;20517;-87
2022/05/29 01:29:42;;;;;;;13.65;6.00;;;;;;;20.39;62.97;98995.81;5042362;28;20080;-88
2022/05/29 01:32:17;;;;;;;10.95;6.10;;;;;;;20.23;62.85;98989.50;5040789;28;20045;-88
2022/05/29 01:34:53;;;;;;;16.77;6.45;;;;;;;19.93;62.90;98960.50;5041630;28;20028;-88
2022/05/29 01:37:31;;;;;;;12.65;6.50;;;;;;;20.11;62.99;98996.88;5038195;28;20029;-88
2022/05/29 01:40:31;;;;;;;12.13;6.20;;;;;;;20.34;63.15;99024.44;5037919;28;20056;-88
2022/05/29 01:43:15;;;;;;;13.73;6.55;;;;;;;20.34;63.19;99019.06;5035486;28;20461;-88
2022/05/29 01:46:00;;;;;;;14.65;7.07;;;;;;;20.34;63.23;99024.44;5030714;28;20402;-88
2022/05/29 01:48:34;;;;;;;16.48;7.35;;;;;;;20.35;63.03;99021.50;5031460;28;20033;-88
2022/05/29 01:51:07;;;;;;;15.77;6.68;;;;;;;20.25;63.07;99011.50;5030217;28;20030;-88
2022/05/29 01:53:38;;;;;;;13.82;6.38;;;;;;;20.33;62.75;99031.66;5031213;28;20530;-87
2022/05/29 01:56:13;;;;;;;12.73;5.95;;;;;;;20.32;62.88;99048.81;5033731;28;20021;-88
2022/05/29 01:58:44;;;;;;;14.07;6.95;;;;;;;20.32;63.01;99040.78;5035507;28;20021;-86
2022/05/29 02:01:12;;;;;;;14.10;5.72;;;;;;;19.87;62.78;98974.09;5035344;28;20021;-88
2022/05/29 02:03:47;;;;;;;11.77;6.10;;;;;;;19.71;62.90;98959.72;5034066;28;20091;-88
2022/05/29 02:06:18;;;;;;;13.48;6.25;;;;;;;20.32;63.04;99051.50;5035515;28;20564;-87
2022/05/29 02:09:00;;;;;;;18.80;7.28;;;;;;;20.23;63.04;99050.34;5035496;28;20025;-88
2022/05/29 02:11:28;;;;;;;17.13;6.28;;;;;;;19.55;63.18;98956.06;5034092;28;20550;-87
2022/05/29 02:13:56;;;;;;;14.65;6.68;;;;;;;20.17;63.14;99038.75;5033971;28;20075;-88
2022/05/29 02:16:53;;;;;;;13.65;6.25;;;;;;;20.11;63.21;99033.59;5035215;28;20018;-87
2022/05/29 02:19:44;;;;;;;17.13;6.93;;;;;;;20.09;63.20;99030.34;5035381;28;20056;-88
2022/05/29 02:22:14;;;;;;;14.77;5.93;;;;;;;19.54;63.25;98994.63;5033652;28;20413;-88
2022/05/29 02:24:53;;;;;;;15.13;6.40;;;;;;;19.84;63.13;99014.78;5034901;28;20057;-88
2022/05/29 02:27:50;;;;;;;16.98;6.57;;;;;;;19.84;63.34;99012.91;5035039;28;20083;-87
2022/05/29 02:30:15;;;;;;;12.30;6.03;;;;;;;19.57;63.11;99006.69;5034809;28;20110;-86
2022/05/29 02:32:47;;;;;;;10.32;6.03;;;;;;;20.08;63.34;99059.03;5035307;28;20053;-88
2022/05/29 02:35:24;;;;;;;12.43;6.32;;;;;;;20.00;63.26;99060.25;5033751;28;20572;-87
2022/05/29 02:38:06;;;;;;;14.73;6.47;;;;;;;19.22;63.56;98946.25;5033506;28;20191;-87
2022/05/29 02:40:35;;;;;;;12.38;6.22;;;;;;;19.52;63.67;98999.41;5033533;28;20513;-88
2022/05/29 02:43:10;;;;;;;14.25;5.57;;;;;;;19.22;63.64;98966.84;5033310;28;20030;-88
2022/05/29 02:46:24;;;;;;;9.70;5.55;;;;;;;19.82;63.90;99068.59;5034841;28;20056;-88
2022/05/29 02:48:58;;;;;;;13.82;6.13;;;;;;;19.79;63.79;99044.19;5024558;28;20033;-89
2022/05/29 02:51:31;;;;;;;12.20;6.55;;;;;;;19.80;64.10;99029.75;5035101;28;20410;-88
2022/05/29 02:53:57;;;;;;;12.77;6.57;;;;;;;19.05;63.82;98932.91;5033921;28;20506;-88
2022/05/29 02:56:23;;;;;;;13.27;6.20;;;;;;;19.78;64.11;99053.28;5035245;28;20036;-88
2022/05/29 02:58:51;;;;;;;12.93;6.18;;;;;;;19.14;64.12;98988.69;5034060;28;20025;-88
2022/05/29 03:01:20;;;;;;;11.90;5.45;;;;;;;19.78;64.26;99075.53;5040770;28;20009;-86
2022/05/29 03:04:10;;;;;;;15.10;6.97;;;;;;;19.80;64.29;99086.00;5054073;28;20027;-86
2022/05/29 03:07:03;;;;;;;12.35;5.97;;;;;;;19.80;64.30;99078.75;5053313;28;20025;-86
2022/05/29 03:09:59;;;;;;;12.70;5.60;;;;;;;19.80;64.05;99086.00;5036148;28;20013;-88
2022/05/29 03:12:37;;;;;;;10.57;5.57;;;;;;;19.77;64.19;99097.22;5033212;28;20035;-88
2022/05/29 03:15:27;;;;;;;12.25;6.22;;;;;;;19.48;64.21;99073.25;5034612;28;20064;-88
2022/05/29 03:18:09;;;;;;;10.60;5.55;;;;;;;19.47;64.21;99073.47;5034930;28;20018;-87
2022/05/29 03:20:41;;;;;;;15.15;6.18;;;;;;;19.85;64.08;99137.78;5033584;28;20021;-87
2022/05/29 03:23:32;;;;;;;13.93;6.18;;;;;;;19.84;64.12;99157.59;5033406;28;20030;-87
2022/05/29 03:26:03;;;;;;;10.90;5.40;;;;;;;19.40;64.13;99126.41;5032995;28;20021;-88
2022/05/29 03:28:38;;;;;;;14.02;5.97;;;;;;;19.14;64.17;99085.03;5034272;28;20017;-88
2022/05/29 03:31:10;;;;;;;13.15;5.82;;;;;;;19.48;64.22;99108.03;5034003;28;20033;-87
2022/05/29 03:33:38;;;;;;;13.38;5.57;;;;;;;19.11;63.91;99048.88;5033848;28;20033;-87
2022/05/29 03:36:07;;;;;;;10.40;5.80;;;;;;;19.60;64.04;99110.66;5032684;28;20032;-88
2022/05/29 03:38:33;;;;;;;16.05;6.28;;;;;;;19.59;63.93;99117.88;5032754;28;20048;-87
2022/05/29 03:40:59;;;;;;;11.07;5.93;;;;;;;19.87;63.69;99146.38;5035447;28;20498;-88
2022/05/29 03:43:24;;;;;;;9.25;5.53;;;;;;;19.88;63.58;99123.88;5056482;28;20010;-88
2022/05/29 03:45:50;;;;;;;14.20;6.03;;;;;;;19.68;63.43;99065.50;5045117;28;20034;-88
2022/05/29 03:48:15;;;;;;;13.02;5.18;;;;;;;20.02;63.58;99059.19;5032416;28;20086;-88
2022/05/29 03:50:41;;;;;;;11.98;6.10;;;;;;;19.23;63.50;98909.59;5032510;28;20070;-88
2022/05/29 03:53:07;;;;;;;16.42;7.05;;;;;;;19.64;63.53;98986.72;5032342;28;20589;-87
2022/05/29 03:55:33;;;;;;;10.10;5.97;;;;;;;20.07;63.42;99075.34;5033637;28;20026;-88
2022/05/29 03:57:58;;;;;;;12.13;5.88;;;;;;;20.04;63.64;99091.91;5032577;28;20504;-88
2022/05/29 04:00:25;;;;;;;12.18;6.18;;;;;;;20.09;63.58;99078.59;5033509;28;20032;-88
2022/05/29 04:02:51;;;;;;;15.30;6.30;;;;;;;20.11;63.41;99065.75;5033342;28;20494;-88
2022/05/29 04:05:20;;;;;;;14.45;5.70;;;;;;;20.14;63.54;99033.91;5033214;28;20026;-88
2022/05/29 04:13:17;;;;;;;19.45;6.07;;;;;;;20.03;63.68;98986.59;5033461;28;20029;-88
2022/05/29 04:15:45;;;;;;;11.95;5.75;;;;;;;19.77;63.51;98928.44;5033370;28;20037;-88
2022/05/29 04:18:16;;;;;;;15.55;5.60;;;;;;;20.20;63.28;98995.34;5030823;28;20395;-88
2022/05/29 04:20:42;;;;;;;14.38;6.63;;;;;;;20.29;63.54;99007.22;5032021;28;20025;-88
2022/05/29 04:23:07;;;;;;;12.55;5.72;;;;;;;19.99;63.67;98991.63;5033083;28;20109;-88
2022/05/29 04:25:33;;;;;;;13.15;5.82;;;;;;;20.05;63.40;99000.53;5032878;28;20013;-87
2022/05/29 04:27:58;;;;;;;11.82;5.82;;;;;;;19.65;63.45;98934.75;5032847;28;20467;-88
2022/05/29 04:30:24;;;;;;;13.68;5.95;;;;;;;20.32;63.34;99040.78;5031375;28;20052;-87
2022/05/29 04:33:01;;;;;;;15.23;6.60;;;;;;;20.03;63.60;99012.56;5032674;28;20017;-88
2022/05/29 04:35:29;;;;;;;13.77;6.57;;;;;;;19.74;63.53;98974.50;5031458;28;20176;-88
2022/05/29 04:37:54;;;;;;;11.80;6.03;;;;;;;20.28;63.88;99056.56;5031508;28;20068;-88
2022/05/29 04:40:20;;;;;;;13.23;6.03;;;;;;;20.08;63.59;99023.38;5031588;28;20052;-88
2022/05/29 04:42:45;;;;;;;11.60;6.07;;;;;;;19.63;63.59;98930.72;5031109;28;20032;-88
2022/05/29 04:45:11;;;;;;;10.40;6.22;;;;;;;19.79;63.44;98961.97;5032471;28;20024;-88
2022/05/29 04:47:37;;;;;;;14.65;6.78;;;;;;;20.03;63.32;98973.19;5031313;28;20029;-88
2022/05/29 04:50:03;;;;;;;14.40;6.18;;;;;;;20.28;63.28;99027.06;5032419;28;20490;-88
2022/05/29 04:52:29;;;;;;;14.15;6.22;;;;;;;20.48;63.13;99031.84;5031156;28;20049;-88
2022/05/29 04:54:55;;;;;;;13.18;6.53;;;;;;;20.77;63.10;99032.34;5032843;28;20083;-87
2022/05/29 04:57:20;;;;;;;15.63;6.40;;;;;;;20.29;62.91;98934.84;5032194;28;20033;-87
2022/05/29 04:59:46;;;;;;;10.90;6.22;;;;;;;20.85;62.99;99005.06;5030864;28;20016;-88
2022/05/29 05:02:11;;;;;;;11.52;5.95;;;;;;;20.82;62.84;98984.09;5030815;28;20021;-87
2022/05/29 05:04:37;;;;;;;14.75;6.50;;;;;;;20.50;62.43;98940.41;5030441;28;20028;-88
2022/05/29 05:07:03;;;;;;;13.27;6.63;;;;;;;20.99;62.15;99018.03;5030594;28;20410;-88
2022/05/29 05:09:29;;;;;;;14.23;6.90;;;;;;;21.01;62.01;99010.53;5031724;28;20021;-88
2022/05/29 05:11:56;;;;;;;11.15;6.60;;;;;;;21.11;62.08;99014.06;5031876;28;20032;-87
2022/05/29 05:14:23;;;;;;;14.82;7.28;;;;;;;20.59;61.88;98939.66;5030817;28;20025;-87
2022/05/29 05:16:49;;;;;;;13.75;6.85;;;;;;;20.83;61.95;98969.63;5031014;28;20107;-88
2022/05/29 05:19:15;;;;;;;12.23;6.40;;;;;;;21.24;61.95;99026.25;5030947;28;20231;-87
2022/05/29 05:21:42;;;;;;;13.23;6.53;;;;;;;21.29;61.98;99012.88;5032166;28;20022;-88
2022/05/29 05:24:08;;;;;;;13.55;6.38;;;;;;;21.18;62.09;98979.75;5032204;28;20056;-88
2022/05/29 05:26:34;;;;;;;17.92;6.90;;;;;;;21.20;62.19;98966.88;5030833;28;20021;-88
2022/05/29 05:28:59;;;;;;;12.02;6.30;;;;;;;21.30;62.16;98968.03;5030362;28;20024;-88
2022/05/29 05:31:25;;;;;;;12.75;6.40;;;;;;;21.40;62.03;98974.25;5030507;28;20025;-88
2022/05/29 05:33:51;;;;;;;13.18;6.65;;;;;;;21.31;61.64;98945.47;5032005;28;20100;-88
2022/05/29 05:36:17;;;;;;;12.73;6.32;;;;;;;21.06;61.43;98901.31;5030774;28;20083;-87
2022/05/29 05:38:43;;;;;;;12.32;6.22;;;;;;;20.98;61.19;98893.75;5030738;28;20029;-88
2022/05/29 05:41:09;;;;;;;10.90;6.72;;;;;;;21.75;60.92;98996.97;5030879;28;20082;-88
2022/05/29 05:43:35;;;;;;;10.65;6.03;;;;;;;20.93;60.53;98858.84;5030535;28;20018;-87
2022/05/29 05:46:00;;;;;;;9.70;6.07;;;;;;;21.37;60.25;98931.00;5031473;28;20071;-88
2022/05/29 05:48:29;;;;;;;10.27;6.25;;;;;;;21.42;59.95;98945.25;5030544;28;20020;-88
2022/05/29 05:50:57;;;;;;;10.45;5.60;;;;;;;21.42;59.74;98928.31;5030325;28;20037;-88
2022/05/29 05:53:22;;;;;;;12.65;6.32;;;;;;;21.39;59.60;98910.06;5031812;28;20651;-88
2022/05/29 05:55:48;;;;;;;16.48;7.40;;;;;;;21.80;59.97;98995.09;5031580;28;20025;-87
2022/05/29 05:58:13;;;;;;;14.77;6.05;;;;;;;21.17;60.26;98915.59;5033321;28;20032;-87
2022/05/29 06:00:38;;;;;;;12.57;6.03;;;;;;;21.37;60.93;98933.69;5036781;28;20021;-87
2022/05/29 06:03:04;;;;;;;13.65;6.70;;;;;;;21.73;60.95;98999.13;5037425;28;20028;-87
2022/05/29 06:05:30;;;;;;;11.63;6.57;;;;;;;21.85;60.89;99007.75;5037563;28;20077;-88
2022/05/29 06:07:55;;;;;;;15.60;6.63;;;;;;;21.72;61.27;98997.50;5038770;28;20025;-87
2022/05/29 06:10:21;;;;;;;15.80;6.60;;;;;;;21.40;61.54;98960.00;5038721;28;20028;-88
2022/05/29 06:12:46;;;;;;;11.57;6.20;;;;;;;21.72;61.44;98995.63;5034398;28;20112;-88
2022/05/29 06:15:12;;;;;;;11.93;6.40;;;;;;;21.32;61.19;98918.38;5029748;28;20053;-88
2022/05/29 06:17:37;;;;;;;11.95;5.97;;;;;;;21.47;61.16;98961.38;5029797;28;20238;-88
2022/05/29 06:20:04;;;;;;;11.88;6.00;;;;;;;21.20;61.08;98925.81;5029980;28;20478;-88
2022/05/29 06:22:29;;;;;;;13.32;6.35;;;;;;;20.83;61.21;98861.50;5029942;28;20458;-88
2022/05/29 06:24:54;;;;;;;11.10;5.63;;;;;;;22.03;61.09;99038.75;5029922;28;20109;-87
2022/05/29 06:27:20;;;;;;;12.48;6.25;;;;;;;21.43;60.88;98951.44;5030347;28;20056;-88
2022/05/29 06:29:45;;;;;;;9.98;5.70;;;;;;;22.01;60.71;99028.22;5029884;28;20112;-88
2022/05/29 06:32:13;;;;;;;9.90;5.28;;;;;;;21.74;60.42;99004.22;5029902;28;20018;-88
2022/05/29 06:34:39;;;;;;;10.32;5.32;;;;;;;22.02;59.82;99021.78;5030855;28;20164;-87
2022/05/29 06:37:06;;;;;;;12.60;6.10;;;;;;;22.15;59.46;99040.13;5029666;28;20108;-85
2022/05/29 06:39:31;;;;;;;11.57;5.57;;;;;;;21.94;58.91;98995.41;5029723;28;20028;-86
2022/05/29 06:41:58;;;;;;;7.07;4.57;;;;;;;22.34;58.58;99036.94;5031197;28;20029;-86
2022/05/29 06:44:23;;;;;;;14.52;5.45;;;;;;;21.81;58.19;98944.84;5034716;28;20104;-86
2022/05/29 06:46:49;;;;;;;10.68;5.07;;;;;;;22.41;57.84;99043.69;5034912;28;20048;-86
2022/05/29 06:49:14;;;;;;;9.07;4.30;;;;;;;22.52;57.38;99036.44;5034443;28;20487;-88
2022/05/29 06:51:40;;;;;;;8.77;4.40;;;;;;;21.93;57.22;98923.91;5033214;28;20033;-88
2022/05/29 06:54:05;;;;;;;8.63;4.50;;;;;;;21.91;56.77;98885.75;5033120;28;20048;-88
2022/05/29 06:56:31;;;;;;;8.65;4.43;;;;;;;22.34;56.80;98951.69;5033131;28;20025;-88
2022/05/29 06:58:58;;;;;;;8.80;4.50;;;;;;;22.70;56.46;98983.94;5033333;28;20028;-88
2022/05/29 07:07:07;;;;;;;10.43;4.45;;;;;;;23.10;55.79;99010.06;5034850;28;20520;-88
2022/05/29 07:09:36;;;;;;;9.48;4.97;;;;;;;22.34;55.81;98862.13;5033107;28;20027;-88
2022/05/29 07:12:09;;;;;;;9.25;4.72;;;;;;;23.09;55.80;98990.41;5033218;28;20091;-87
2022/05/29 07:14:38;;;;;;;10.73;4.70;;;;;;;23.19;55.61;98973.41;5034170;28;20048;-87
2022/05/29 07:17:04;;;;;;;8.32;4.70;;;;;;;23.42;55.56;98988.94;5034192;28;20075;-86
2022/05/29 07:19:29;;;;;;;15.98;5.60;;;;;;;23.50;55.91;98992.16;5033183;28;20021;-86
2022/05/29 07:21:57;;;;;;;12.40;6.05;;;;;;;23.70;55.21;99002.88;5034204;28;20031;-86
2022/05/29 07:24:24;;;;;;;13.80;4.93;;;;;;;23.12;55.22;98913.66;5034209;28;20033;-86
2022/05/29 07:26:49;;;;;;;12.15;5.75;;;;;;;23.85;54.48;98996.63;5034208;28;20099;-86
2022/05/29 07:29:17;;;;;;;11.15;5.80;;;;;;;23.68;54.73;98956.53;5032911;28;20495;-86
2022/05/29 07:31:43;;;;;;;11.85;5.90;;;;;;;23.70;55.04;98978.63;5034154;28;20074;-86
2022/05/29 07:34:08;;;;;;;9.52;5.00;;;;;;;23.61;55.17;98939.84;5032923;28;20108;-87
2022/05/29 07:36:34;;;;;;;13.10;5.05;;;;;;;23.25;55.10;98869.97;5032526;28;20543;-86
2022/05/29 07:39:00;;;;;;;9.95;4.90;;;;;;;24.17;54.54;98993.47;5033977;28;20023;-87
2022/05/29 07:44:10;;;;;;;8.20;4.63;;;;;;;24.03;53.93;98955.53;5033880;28;20158;-86
2022/05/29 07:46:35;;;;;;;9.27;5.00;;;;;;;23.68;53.88;98883.75;5032423;28;20017;-86
2022/05/29 07:49:01;;;;;;;11.30;5.10;;;;;;;24.18;53.71;98928.44;5033436;28;20131;-86
2022/05/29 07:51:26;;;;;;;9.88;4.63;;;;;;;24.57;53.21;98960.81;5032255;28;20560;-86
2022/05/29 07:53:52;;;;;;;11.43;5.22;;;;;;;24.47;53.52;98906.91;5032247;28;20045;-86
2022/05/29 07:56:19;;;;;;;11.98;5.78;;;;;;;24.66;53.27;98923.22;5032224;28;20067;-86
2022/05/29 07:58:45;;;;;;;14.77;5.28;;;;;;;24.29;52.59;98877.94;5033328;28;20494;-86
2022/05/29 08:01:11;;;;;;;12.82;5.90;;;;;;;24.86;52.79;98944.59;5033120;28;20031;-86
2022/05/29 08:03:37;;;;;;;12.82;5.35;;;;;;;24.10;52.64;98821.16;5033199;28;20473;-86
2022/05/29 08:06:03;;;;;;;16.75;5.88;;;;;;;24.54;53.13;98890.41;5031859;28;20505;-87
2022/05/29 08:08:29;;;;;;;11.98;6.03;;;;;;;24.52;53.42;98871.78;5031863;28;20025;-86
2022/05/29 08:10:56;;;;;;;11.98;5.93;;;;;;;24.18;53.83;98825.13;5033063;28;20029;-87
2022/05/29 08:13:21;;;;;;;10.23;5.57;;;;;;;24.38;53.82;98849.25;5031974;28;20028;-86
2022/05/29 08:15:47;;;;;;;13.68;5.20;;;;;;;24.12;54.01;98821.69;5037475;28;20017;-85
2022/05/29 08:18:12;;;;;;;8.77;5.50;;;;;;;24.98;53.86;98944.25;5045080;28;20056;-86
2022/05/29 08:20:38;;;;;;;7.68;5.47;;;;;;;24.57;53.51;98860.97;5031997;28;20021;-86
2022/05/29 08:23:05;;;;;;;12.18;6.05;;;;;;;24.88;53.75;98909.22;5033382;28;20021;-86
2022/05/29 08:30:59;;;;;;;12.98;6.20;;;;;;;24.89;52.64;98864.91;5033459;28;20051;-87
2022/05/29 08:33:27;;;;;;;12.27;6.13;;;;;;;25.23;52.62;98927.75;5032909;28;20519;-88
2022/05/29 08:35:57;;;;;;;14.30;6.07;;;;;;;25.32;53.01;98934.16;5031569;28;20032;-88
2022/05/29 08:38:22;;;;;;;17.08;6.50;;;;;;;25.34;52.50;98910.34;5031502;28;20053;-87
2022/05/29 08:40:54;;;;;;;11.50;6.18;;;;;;;25.57;52.23;98953.81;5032590;28;20050;-87
2022/05/29 08:43:28;;;;;;;10.85;5.70;;;;;;;25.81;52.40;98945.69;5032461;28;20018;-87
2022/05/29 08:45:54;;;;;;;20.48;15.57;;;;;;;25.95;52.16;98938.44;5031320;28;20025;-87
2022/05/29 08:48:23;;;;;;;15.45;9.80;;;;;;;24.87;51.64;98757.19;5031117;28;20565;-87
2022/05/29 08:51:07;;;;;;;11.85;7.40;;;;;;;25.81;51.44;98872.66;5031065;28;20017;-87
2022/05/29 08:53:40;;;;;;;13.60;7.32;;;;;;;25.97;51.37;98882.97;5030927;28;20038;-87
2022/05/29 08:56:22;;;;;;;30.10;23.65;;;;;;;26.50;51.18;98917.84;5030941;28;20525;-86
2022/05/29 08:59:07;;;;;;;13.50;8.75;;;;;;;26.64;50.82;98928.69;5031026;28;20010;-87
2022/05/29 09:01:35;;;;;;;41.90;36.30;;;;;;;26.67;50.83;98914.56;5034856;28;20032;-87
2022/05/29 09:04:08;;;;;;;22.58;17.00;;;;;;;26.80;50.93;98915.72;5030540;28;20021;-87
2022/05/29 09:06:37;;;;;;;24.83;16.70;;;;;;;26.91;50.53;98909.81;5031038;28;20029;-87
2022/05/29 09:09:48;;;;;;;23.77;21.05;;;;;;;26.76;50.28;98852.41;5031008;28;20025;-88
2022/05/29 09:12:21;;;;;;;24.80;17.83;;;;;;;26.59;49.80;98805.03;5026605;28;20095;-87
2022/05/29 09:14:51;;;;;;;16.17;8.45;;;;;;;27.31;50.16;98901.97;5032227;28;20033;-87
2022/05/29 09:17:16;;;;;;;12.75;7.47;;;;;;;27.52;49.69;98896.94;5030816;28;20570;-87
2022/05/29 09:19:57;;;;;;;19.15;12.43;;;;;;;27.73;49.55;98900.84;5030857;28;20113;-87
2022/05/29 09:22:30;;;;;;;13.32;7.35;;;;;;;27.91;49.01;98893.63;5031987;28;20034;-87
2022/05/29 09:25:07;;;;;;;20.73;10.30;;;;;;;28.05;48.73;98891.66;5030706;28;20083;-87
2022/05/29 09:27:35;;;;;;;19.23;11.68;;;;;;;28.02;48.78;98880.63;5031766;28;20022;-87
2022/05/29 09:30:01;;;;;;;15.60;10.13;;;;;;;27.26;48.37;98749.50;5030562;28;20033;-87
2022/05/29 09:32:30;;;;;;;15.88;7.70;;;;;;;27.10;48.26;98744.44;5031709;28;20021;-87
2022/05/29 09:35:15;;;;;;;11.55;7.53;;;;;;;27.97;48.77;98867.97;5030528;28;20022;-87
2022/05/29 09:37:56;;;;;;;15.07;7.22;;;;;;;27.94;48.48;98867.78;5030358;28;20028;-86
2022/05/29 09:40:26;;;;;;;13.30;8.10;;;;;;;27.95;48.85;98859.34;5030327;28;20525;-87
2022/05/29 09:42:53;;;;;;;15.45;7.78;;;;;;;27.60;48.61;98765.25;5031607;28;20056;-86
2022/05/29 09:45:32;;;;;;;16.55;13.05;;;;;;;28.16;48.24;98854.22;5030613;28;20482;-87
2022/05/29 09:50:57;;;;;;;13.32;9.52;;;;;;;28.19;48.52;98837.31;5031925;28;20052;-87
2022/05/29 09:53:28;;;;;;;12.85;8.20;;;;;;;27.87;47.72;98737.19;5029096;28;20517;-86
2022/05/29 09:56:02;;;;;;;14.98;6.47;;;;;;;28.35;46.57;98740.03;5011523;28;20034;-86
2022/05/29 09:58:49;;;;;;;17.40;11.27;;;;;;;28.88;45.81;98801.56;5010232;28;20499;-85
2022/05/29 10:01:34;;;;;;;15.60;9.25;;;;;;;29.47;45.42;98826.47;5009686;28;20493;-85
2022/05/29 10:04:03;;;;;;;12.75;5.72;;;;;;;29.67;44.28;98820.38;5010611;28;20101;-85
2022/05/29 10:06:31;;;;;;;14.13;5.95;;;;;;;29.84;42.56;98830.47;5010822;28;20022;-86
2022/05/29 10:09:24;;;;;;;17.98;10.00;;;;;;;29.54;41.74;98761.50;5011577;28;20056;-86
2022/05/29 10:12:13;;;;;;;13.40;4.63;;;;;;;30.09;39.61;98826.13;5010056;28;20034;-85
2022/05/29 10:14:41;;;;;;;17.95;11.48;;;;;;;30.17;39.16;98820.66;5011835;28;20032;-86
2022/05/29 10:17:13;;;;;;;10.82;8.00;;;;;;;30.40;39.59;98831.31;5011574;28;20030;-87
2022/05/29 10:19:42;;;;;;;8.60;4.88;;;;;;;30.29;39.28;98782.66;5015584;28;20025;-86
2022/05/29 10:22:37;;;;;;;11.52;7.15;;;;;;;30.74;39.73;98817.59;5014087;28;20021;-86
2022/05/29 10:25:22;;;;;;;9.95;6.70;;;;;;;30.76;39.08;98793.56;5013990;28;20537;-87
2022/05/29 10:27:50;;;;;;;10.38;6.05;;;;;;;31.09;38.90;98812.75;5017975;28;20525;-87
2022/05/29 10:30:38;;;;;;;12.23;5.25;;;;;;;30.75;39.13;98748.34;5017665;28;20076;-86
2022/05/29 10:33:07;;;;;;;8.80;5.43;;;;;;;31.23;38.96;98801.63;5017869;28;20026;-86
2022/05/29 10:35:35;;;;;;;12.90;8.10;;;;;;;30.79;39.38;98702.16;5017004;28;20084;-86
2022/05/29 10:38:19;;;;;;;15.88;9.18;;;;;;;31.61;38.89;98777.72;5016878;28;20084;-86
2022/05/29 10:40:50;;;;;;;15.20;8.48;;;;;;;31.58;39.02;98805.69;5016402;28;20060;-86
2022/05/29 10:43:36;;;;;;;8.68;5.60;;;;;;;31.73;38.44;98778.94;5014015;28;20029;-85
2022/05/29 10:46:06;;;;;;;11.95;6.35;;;;;;;31.73;38.71;98754.34;5013665;28;20088;-85
2022/05/29 10:48:41;;;;;;;10.75;8.10;;;;;;;31.87;38.86;98757.59;5013607;28;20030;-85
2022/05/29 10:51:33;;;;;;;14.18;8.93;;;;;;;31.63;38.28;98722.00;5013820;28;20473;-86
2022/05/29 10:54:07;;;;;;;11.93;6.57;;;;;;;32.06;38.42;98746.16;5013318;28;20151;-85
2022/05/29 10:57:14;;;;;;;16.88;14.98;;;;;;;32.11;38.37;98741.25;5014619;28;20594;-86
2022/05/29 11:00:03;;;;;;;25.23;18.85;;;;;;;31.98;38.40;98708.81;5008372;28;20034;-86
2022/05/29 11:06:15;;;;;;;13.98;10.70;;;;;;;31.40;39.66;98711.47;4973376;28;20633;-86
2022/05/29 11:09:06;;;;;;;11.93;6.43;;;;;;;31.77;39.13;98701.47;4957045;28;20029;-85
2022/05/29 11:11:50;;;;;;;;;;;;;;;32.01;39.09;98702.69;5004973;28;20034;-85
2022/05/29 11:14:42;;;;;;;12.60;8.13;;;;;;;32.11;38.28;98692.09;5013052;28;19916;-85
2022/05/29 11:17:45;;;;;;;19.08;14.25;;;;;;;32.31;38.12;98692.38;5014313;28;20048;-85
2022/05/29 11:20:19;;;;;;;24.25;18.48;;;;;;;32.48;37.99;98686.66;5014245;28;20517;-86
2022/05/29 11:23:09;;;;;;;16.88;7.78;;;;;;;32.15;37.88;98627.47;5013912;28;20026;-85
2022/05/29 11:25:38;;;;;;;23.60;20.67;;;;;;;32.08;38.15;98672.88;5012761;28;20030;-84
2022/05/29 11:28:51;;;;;;;15.18;9.77;;;;;;;31.92;38.22;98651.69;5013790;28;20041;-84
2022/05/29 11:31:31;;;;;;;16.17;10.55;;;;;;;31.69;38.47;98691.44;5009027;28;20037;-87
2022/05/29 11:34:33;;;;;;;14.03;9.47;;;;;;;31.29;38.80;98677.56;5013911;28;20108;-84
2022/05/29 11:37:22;;;;;;;11.20;7.72;;;;;;;31.18;39.83;98690.78;4982215;28;20319;-86
2022/05/29 11:40:15;;;;;;;14.60;10.68;;;;;;;31.38;39.73;98682.94;5012467;28;20037;-86
2022/05/29 11:42:53;;;;;;;15.38;13.65;;;;;;;31.73;39.38;98686.91;5012384;28;20068;-86
2022/05/29 11:51:06;;;;;;;18.58;9.02;;;;;;;31.58;39.63;98654.78;5013789;28;20032;-86
2022/05/29 11:51:08;;;;;;;15.30;11.48;;;;;;;31.31;40.28;98678.03;5013535;28;20028;-87
2022/05/29 11:53:41;;;;;;;19.52;14.07;;;;;;;31.13;41.03;98671.88;5013238;28;20042;-86
2022/05/29 11:56:15;;;;;;;15.07;9.85;;;;;;;30.58;40.85;98590.41;5012302;28;20103;-86
2022/05/29 11:58:47;;;;;;;14.20;7.90;;;;;;;30.32;41.62;98580.47;5012246;28;20021;-86
2022/05/29 12:01:26;;;;;;;14.27;8.20;;;;;;;30.15;42.29;98580.59;5011860;28;20026;-86
2022/05/29 12:04:05;;;;;;;15.02;7.82;;;;;;;30.14;42.18;98608.94;5013402;28;20585;-86
2022/05/29 12:07:09;;;;;;;21.80;16.38;;;;;;;30.29;42.53;98654.66;5021627;28;20498;-86
2022/05/29 12:10:10;;;;;;;11.50;8.82;;;;;;;30.12;42.66;98646.59;5010540;28;20026;-86
2022/05/29 12:12:47;;;;;;;21.98;15.43;;;;;;;30.16;42.70;98672.03;5031717;28;20078;-84
2022/05/29 12:15:17;;;;;;;27.45;23.48;;;;;;;30.44;42.39;98657.94;5032577;28;20068;-85
2022/05/29 12:17:51;;;;;;;16.83;11.40;;;;;;;30.49;42.10;98609.53;5030971;28;20033;-85